Jena, LA (71342)

3:09 AM CDT on August 02, 2014 (GMT -0500)
Alexandria Esler Regional (KESF) Elev 112 ft | 31.39 °N, 92.30 °W | Change Station

Current weather conditions updated 16 minutes ago

Overcast
Overcast
75 °F
Feels Like 75 °F
N
0
Wind Variable Wind from North

Today is forecast to be nearly the same temperature as yesterday. Scattered thunderstorms.

Today
High -- | Low -- °F
--% Chance of Precip.
Yesterday
High -- | Low -- °F
Precip. -- in
6:25 AM 8:03 PM
Waxing Crescent, 33% visible
Pressure 29.95 in
Visibility 4.0 miles
Clouds Overcast 400 ft
Dew Point 73 °F
Humidity 94%
Rainfall 0.00 in
Snow Depth Not available.
UV 0 out of 12
Pollen 1.00 out of 12
Air Quality Not available.
Flu Activity Not available.
METAR KESF 020753Z AUTO 00000KT 4SM BR OVC004 24/23 A2995

More Conditions Fewer Conditions

Pressure 29.95 in
Visibility 4.0 miles
Clouds Overcast 400 ft
Dew Point 73 °F
Humidity 94%
Rainfall 0.00 in
Snow Depth Not available.
UV 0 out of 12
Pollen 1.00 out of 12
Air Quality Not available.
Flu Activity Not available.
METAR KESF 020753Z AUTO 00000KT 4SM BR OVC004 24/23 A2995

More Conditions Fewer Conditions

10-Day Weather Forecast

Almanac

Astronomy

Aug. 02, 2014 Rise Set
Actual Time 6:25 AM CDT 8:03 PM CDT
Civil Twilight 5:58 AM CDT 8:30 PM CDT
Nautical Twilight 5:26 AM CDT 9:02 PM CDT
Astronomical Twilight 4:53 AM CDT 9:35 PM CDT
Moon 12:20 PM CDT 11:50 PM CDT
Length of Visible Light 14h 31m
Length of Day
13h 38m
Tomorrow will be 1m 28s shorter.
Waxing Crescent, 33% of the Moon is Illuminated
Today
Waxing Crescent
Aug 3
First Quarter
Aug 10
Full
Aug 17
Last Quarter
Aug 25
New

Today's Extremes

State Highs State Lows

Community

WunderPhotos

Upload Photos

1,739,843 photos uploaded!

Nearby

Snow Depth

Station Depth Elevation
No new snow has been reported.

Earthquake Activity

City Distance Mag. Time & Date
No recent earthquake activity has been reported nearby.
Minimum magnitude displayed is 2.5.

Coastal Water Temperatures

Place Temperature
No Stations Reporting

Nearby Weather Stations

Station Location Temp. Heat Index Dew Point Humidity Wind Precip. Elev Updated Type
MesoWest URANIA , Tullos, LA 71 °F - - - North  at  - 0.00 in / hr 111 ft 1:45 AM CDT MADIS
MesoWest VENEER , Georgetown, LA 70 °F - - - North  at  - 0.00 in / hr 94 ft 2:00 AM CDT MADIS
MesoWest OLLA , Olla, LA 69 °F - - - North  at  - 0.00 in / hr 189 ft 1:20 AM CDT MADIS
MesoWest SIMMS , Pollock, LA 80 °F 78 °F - - North  at  - 0.00 in / hr 191 ft 11:35 PM CDT MADIS
RAWS CATAHOULA LA, Pollock, LA 73 °F - 72 °F 97% NE  at  2 mph 0.00 in / hr 229 ft 2:32 AM CDT MADIS

Show More Stations Show Fewer Stations